createdAt,value
2019-02-05T00:00:59.806Z,5.93
2019-02-05T00:03:29.733Z,5.70
2019-02-05T00:05:59.230Z,8.93
2019-02-05T00:08:29.421Z,7.97
2019-02-05T00:11:00.032Z,4.93
2019-02-05T00:13:29.958Z,5.63
2019-02-05T00:15:59.610Z,5.12
2019-02-05T00:18:29.118Z,3.33
2019-02-05T00:20:58.663Z,6.30
2019-02-05T00:23:28.817Z,11.67
2019-02-05T00:26:05.856Z,6.70
2019-02-05T00:28:30.477Z,4.53
2019-02-05T00:31:00.244Z,4.90
2019-02-05T00:33:30.089Z,5.53
2019-02-05T00:35:59.667Z,6.50
2019-02-05T00:38:29.453Z,5.80
2019-02-05T00:40:59.958Z,10.57
2019-02-05T00:43:29.574Z,9.63
2019-02-05T00:45:59.318Z,7.83
2019-02-05T00:48:29.355Z,9.50
2019-02-05T00:50:59.699Z,6.93
2019-02-05T00:53:29.439Z,6.40
2019-02-05T00:55:59.473Z,6.03
2019-02-05T00:58:29.077Z,6.80
2019-02-05T01:00:58.645Z,6.47
2019-02-05T01:03:28.460Z,5.30
2019-02-05T01:05:58.225Z,6.93
2019-02-05T01:08:27.794Z,5.07
2019-02-05T01:10:57.416Z,5.87
2019-02-05T01:13:26.926Z,7.93
2019-02-05T01:15:56.744Z,7.20
2019-02-05T01:18:26.524Z,6.47
2019-02-05T01:20:56.248Z,6.23
2019-02-05T01:23:25.980Z,5.37
2019-02-05T01:25:55.561Z,6.47
2019-02-05T01:28:25.685Z,6.23
2019-02-05T01:30:55.438Z,6.97
2019-02-05T01:33:25.186Z,8.73
2019-02-05T01:35:54.826Z,5.93
2019-02-05T01:38:24.673Z,9.10
2019-02-05T01:40:54.206Z,8.47
2019-02-05T01:43:23.721Z,7.73
2019-02-05T01:45:53.781Z,8.00
2019-02-05T01:48:23.285Z,8.55
2019-02-05T01:50:52.761Z,9.00
2019-02-05T01:53:23.930Z,10.67
2019-02-05T01:55:54.776Z,9.00
2019-02-05T01:58:24.416Z,8.70
2019-02-05T02:00:54.281Z,7.73
2019-02-05T02:03:24.610Z,11.87
2019-02-05T02:05:54.393Z,8.83
2019-02-05T02:08:24.229Z,8.10
2019-02-05T02:10:53.747Z,8.60
2019-02-05T02:13:23.590Z,8.87
2019-02-05T02:15:53.095Z,12.90
2019-02-05T02:18:22.982Z,11.53
2019-02-05T02:20:52.536Z,6.90
2019-02-05T02:23:22.078Z,8.00
2019-02-05T02:25:51.681Z,9.80
2019-02-05T02:28:21.519Z,8.07
2019-02-05T02:30:51.063Z,6.87
2019-02-05T02:33:20.683Z,9.77
2019-02-05T02:35:50.195Z,8.78
2019-02-05T02:38:19.785Z,8.50
2019-02-05T02:40:49.324Z,9.27
2019-02-05T02:43:18.901Z,8.93
2019-02-05T02:45:48.402Z,7.33
2019-02-05T02:48:17.931Z,10.58
2019-02-05T02:50:47.736Z,8.90
2019-02-05T02:53:17.257Z,9.13
2019-02-05T02:55:46.826Z,6.40
2019-02-05T02:58:16.671Z,12.53
2019-02-05T03:00:47.702Z,10.73
2019-02-05T03:03:18.230Z,8.40
2019-02-05T03:05:47.746Z,9.23
2019-02-05T03:08:17.318Z,8.23
2019-02-05T03:10:46.859Z,10.30
2019-02-05T03:13:16.344Z,10.03
2019-02-05T03:15:45.866Z,8.60
2019-02-05T03:18:15.797Z,8.30
2019-02-05T03:20:45.347Z,15.73
2019-02-05T03:23:14.887Z,8.05
2019-02-05T03:25:44.453Z,12.13
2019-02-05T03:28:13.984Z,9.07
2019-02-05T03:30:43.503Z,9.83
2019-02-05T03:33:13.012Z,8.00
2019-02-05T03:35:42.703Z,10.40
2019-02-05T03:38:12.449Z,10.00
2019-02-05T03:41:04.472Z,8.37
2019-02-05T03:43:35.224Z,10.63
2019-02-05T03:46:06.872Z,7.87
2019-02-05T03:48:37.026Z,8.63
2019-02-05T03:51:46.902Z,10.87
2019-02-05T03:54:51.524Z,8.47
2019-02-05T03:57:39.868Z,8.23
2019-02-05T04:00:41.776Z,10.37
2019-02-05T04:03:27.257Z,10.63
2019-02-05T04:06:39.730Z,10.00
2019-02-05T04:09:26.179Z,8.67
2019-02-05T04:12:41.143Z,10.83
2019-02-05T04:15:35.929Z,9.87
2019-02-05T04:18:32.563Z,8.90
2019-02-05T04:21:45.515Z,7.83
2019-02-05T04:24:59.684Z,10.40
2019-02-05T04:28:03.772Z,9.13
2019-02-05T04:31:13.065Z,9.10
2019-02-05T04:34:25.367Z,9.87
2019-02-05T04:37:20.966Z,9.97
2019-02-05T04:40:12.352Z,12.90
2019-02-05T04:42:55.198Z,11.37
2019-02-05T04:45:44.158Z,11.17
2019-02-05T04:48:51.286Z,16.73
2019-02-05T04:51:55.699Z,10.67
2019-02-05T04:54:51.885Z,10.00
2019-02-05T04:57:56.679Z,11.10
2019-02-05T05:00:40.061Z,14.83
2019-02-05T05:03:36.921Z,13.47
2019-02-05T05:06:43.003Z,11.47
2019-02-05T05:09:44.790Z,8.85
2019-02-05T05:12:14.386Z,11.20
2019-02-05T05:14:44.221Z,13.07
2019-02-05T05:17:13.752Z,10.97
2019-02-05T05:19:43.605Z,11.65
2019-02-05T05:22:13.343Z,10.83
2019-02-05T05:24:45.348Z,10.73
2019-02-05T05:27:16.124Z,11.18
2019-02-05T05:29:46.085Z,13.27
2019-02-05T05:32:15.670Z,13.10
2019-02-05T05:34:45.267Z,11.27
2019-02-05T05:37:13.739Z,11.93
2019-02-05T05:39:43.351Z,9.85
2019-02-05T05:42:13.190Z,14.13
2019-02-05T05:44:43.242Z,9.60
2019-02-05T05:47:12.771Z,13.27
2019-02-05T05:49:42.295Z,11.63
2019-02-05T05:52:11.801Z,9.57
2019-02-05T05:54:41.333Z,11.90
2019-02-05T05:57:10.926Z,8.43
2019-02-05T05:59:40.746Z,11.77
2019-02-05T06:02:10.259Z,9.47
2019-02-05T06:04:39.748Z,9.40
2019-02-05T06:07:09.304Z,9.67
2019-02-05T06:09:38.826Z,12.37
2019-02-05T06:12:08.634Z,9.28
2019-02-05T06:14:38.558Z,7.83
2019-02-05T06:17:08.584Z,8.98
2019-02-05T06:19:38.610Z,12.43
2019-02-05T06:22:08.578Z,10.60
2019-02-05T06:24:38.574Z,9.88
2019-02-05T06:27:08.672Z,11.20
2019-02-05T06:29:38.587Z,11.55
2019-02-05T06:32:08.838Z,9.48
2019-02-05T06:34:38.686Z,12.03
2019-02-05T06:37:08.803Z,9.15
2019-02-05T06:39:38.647Z,10.18
2019-02-05T06:42:08.625Z,8.70
2019-02-05T06:44:39.195Z,8.57
2019-02-05T06:47:09.071Z,8.73
2019-02-05T06:49:38.963Z,10.60
2019-02-05T06:52:08.972Z,13.68
2019-02-05T06:54:39.440Z,9.77
2019-02-05T06:57:09.544Z,10.93
2019-02-05T06:59:40.278Z,13.17
2019-02-05T07:02:10.767Z,10.37
2019-02-05T07:04:40.697Z,9.80
2019-02-05T07:07:10.313Z,10.40
2019-02-05T07:09:39.825Z,10.50
2019-02-05T07:12:09.436Z,9.30
2019-02-05T07:14:38.932Z,12.37
2019-02-05T07:17:08.851Z,12.45
2019-02-05T07:19:39.044Z,9.90
2019-02-05T07:22:08.718Z,11.00
2019-02-05T07:24:38.873Z,10.93
2019-02-05T07:27:09.441Z,14.10
2019-02-05T07:29:39.039Z,12.10
2019-02-05T07:32:08.931Z,14.13
2019-02-05T07:34:38.850Z,9.75
2019-02-05T07:37:08.793Z,12.20
2019-02-05T07:39:38.728Z,11.03
2019-02-05T07:42:08.807Z,9.10
2019-02-05T07:44:40.050Z,14.43
2019-02-05T07:47:09.697Z,12.07
2019-02-05T07:49:39.493Z,12.73
2019-02-05T07:52:09.370Z,12.50
2019-02-05T07:54:38.880Z,13.43
2019-02-05T07:57:09.023Z,13.33
2019-02-05T07:59:39.630Z,12.70
2019-02-05T08:02:09.751Z,13.47
2019-02-05T08:04:39.563Z,15.20
2019-02-05T08:07:10.385Z,14.40
2019-02-05T08:09:39.899Z,18.67
2019-02-05T08:12:09.650Z,13.63
2019-02-05T08:14:39.179Z,16.90
2019-02-05T08:17:08.874Z,19.80
2019-02-05T08:19:39.087Z,14.20
2019-02-05T08:22:09.687Z,15.32
2019-02-05T08:24:39.243Z,14.70
2019-02-05T08:27:09.126Z,14.20
2019-02-05T08:29:38.975Z,21.07
2019-02-05T08:32:08.874Z,14.43
2019-02-05T08:34:38.965Z,18.65
2019-02-05T08:37:09.165Z,18.00
2019-02-05T08:39:39.230Z,14.07
2019-02-05T08:42:09.018Z,15.90
2019-02-05T08:44:39.205Z,15.98
2019-02-05T08:47:09.178Z,15.85
2019-02-05T08:49:38.904Z,16.12
2019-02-05T08:52:09.250Z,18.10
2019-02-05T08:54:39.270Z,18.47
2019-02-05T08:57:09.381Z,21.55
2019-02-05T08:59:39.007Z,21.33
2019-02-05T09:02:09.056Z,18.80
2019-02-05T09:04:39.171Z,18.73
2019-02-05T09:07:08.984Z,20.62
2019-02-05T09:09:38.963Z,20.25
2019-02-05T09:12:09.503Z,20.23
2019-02-05T09:14:39.014Z,20.07
2019-02-05T09:17:08.990Z,18.67
2019-02-05T09:19:39.016Z,18.35
2019-02-05T09:22:08.990Z,21.60
2019-02-05T09:24:39.042Z,24.72
2019-02-05T09:27:09.021Z,20.02
2019-02-05T09:29:39.104Z,20.23
2019-02-05T09:32:09.122Z,18.70
2019-02-05T09:34:40.874Z,17.90
2019-02-05T09:37:10.440Z,21.90
2019-02-05T09:39:40.179Z,19.10
2019-02-05T09:42:09.963Z,19.93
2019-02-05T09:44:39.555Z,19.47
2019-02-05T09:47:09.057Z,20.50
2019-02-05T09:49:39.157Z,19.73
2019-02-05T09:52:09.304Z,24.80
2019-02-05T09:54:39.298Z,20.82
2019-02-05T09:57:09.410Z,24.17
2019-02-05T09:59:45.496Z,23.50
2019-02-05T10:02:10.434Z,18.57
2019-02-05T10:04:40.045Z,20.47
2019-02-05T10:07:09.579Z,19.27
2019-02-05T10:09:39.448Z,21.23
2019-02-05T10:12:09.439Z,20.12
2019-02-05T10:14:39.195Z,21.45
2019-02-05T10:17:09.142Z,21.37
2019-02-05T10:19:39.364Z,19.48
2019-02-05T10:22:09.478Z,19.45
2019-02-05T10:24:39.136Z,18.00
2019-02-05T10:27:09.269Z,19.60
2019-02-05T10:29:40.065Z,18.03
2019-02-05T10:32:09.826Z,15.17
2019-02-05T10:34:39.334Z,20.70
2019-02-05T10:37:09.210Z,15.80
2019-02-05T10:39:39.490Z,15.20
2019-02-05T10:42:09.549Z,13.35
2019-02-05T10:44:40.427Z,16.10
2019-02-05T10:47:10.208Z,14.27
2019-02-05T10:49:39.979Z,13.77
2019-02-05T10:52:09.567Z,15.13
2019-02-05T10:54:39.171Z,14.15
2019-02-05T10:57:09.297Z,13.32
2019-02-05T10:59:39.296Z,16.07
2019-02-05T11:02:09.536Z,14.35
2019-02-05T11:04:39.218Z,20.95
2019-02-05T11:07:09.256Z,16.67
2019-02-05T11:09:39.787Z,14.40
2019-02-05T11:12:09.395Z,12.40
2019-02-05T11:14:39.451Z,20.15
2019-02-05T11:17:09.268Z,16.77
2019-02-05T11:19:39.321Z,15.98
2019-02-05T11:22:09.258Z,19.98
2019-02-05T11:24:39.250Z,20.17
2019-02-05T11:27:09.287Z,16.42
2019-02-05T11:29:39.393Z,14.87
2019-02-05T11:32:09.295Z,18.25
2019-02-05T11:34:39.390Z,17.82
2019-02-05T11:37:09.425Z,16.60
2019-02-05T11:39:39.788Z,19.62
2019-02-05T11:42:09.659Z,19.17
2019-02-05T11:44:39.499Z,17.85
2019-02-05T11:47:09.346Z,15.80
2019-02-05T11:49:39.347Z,15.45
2019-02-05T11:52:09.980Z,17.82
2019-02-05T11:54:39.592Z,17.40
2019-02-05T11:57:09.429Z,17.42
2019-02-05T11:59:39.597Z,21.73
2019-02-05T12:02:09.670Z,19.13
2019-02-05T12:04:39.311Z,23.57
2019-02-05T12:07:09.363Z,31.87
2019-02-05T12:09:40.147Z,21.15
2019-02-05T12:12:09.754Z,20.57
2019-02-05T12:14:39.322Z,19.87
2019-02-05T12:17:09.495Z,21.15
2019-02-05T12:19:39.661Z,21.75
2019-02-05T12:22:09.667Z,19.75
2019-02-05T12:24:39.614Z,22.13
2019-02-05T12:27:09.479Z,23.27
2019-02-05T12:29:39.389Z,25.10
2019-02-05T12:32:09.403Z,19.98
2019-02-05T12:34:39.669Z,27.35
2019-02-05T12:37:09.470Z,22.62
2019-02-05T12:39:39.468Z,24.80
2019-02-05T12:42:09.559Z,27.62
2019-02-05T12:44:39.517Z,25.35
2019-02-05T12:47:09.552Z,29.30
2019-02-05T12:49:39.430Z,23.60
2019-02-05T12:52:09.529Z,28.55
2019-02-05T12:54:39.694Z,28.02
2019-02-05T12:57:09.502Z,28.32
2019-02-05T12:59:39.480Z,26.90
2019-02-05T13:02:09.818Z,31.30
2019-02-05T13:04:39.570Z,27.80
2019-02-05T13:07:09.868Z,31.35
2019-02-05T13:09:39.522Z,38.25
2019-02-05T13:12:09.903Z,29.67
2019-02-05T13:14:40.391Z,47.17
2019-02-05T13:17:10.058Z,30.80
2019-02-05T13:19:39.873Z,31.87
2019-02-05T13:22:09.795Z,32.42
2019-02-05T13:24:39.577Z,30.85
2019-02-05T13:27:09.781Z,33.63
2019-02-05T13:29:39.533Z,36.10
2019-02-05T13:32:09.588Z,31.93
2019-02-05T13:34:39.638Z,31.15
2019-02-05T13:37:09.543Z,29.72
2019-02-05T13:39:39.840Z,34.33
2019-02-05T13:42:09.562Z,29.20
2019-02-05T13:44:39.609Z,31.50
2019-02-05T13:47:09.818Z,34.00
2019-02-05T13:49:39.603Z,30.82
2019-02-05T13:52:09.674Z,35.05
2019-02-05T13:54:39.921Z,35.67
2019-02-05T13:57:09.803Z,32.70
2019-02-05T13:59:39.742Z,37.40
2019-02-05T14:02:09.845Z,29.35
2019-02-05T14:04:39.847Z,36.63
2019-02-05T14:07:09.996Z,38.42
2019-02-05T14:09:40.109Z,34.60
2019-02-05T14:12:09.994Z,36.17
2019-02-05T14:14:40.194Z,32.10
2019-02-05T14:17:10.499Z,36.30
2019-02-05T14:19:40.286Z,35.57
2019-02-05T14:22:10.348Z,34.33
2019-02-05T14:24:40.839Z,34.17
2019-02-05T14:27:10.619Z,35.63
2019-02-05T14:29:40.336Z,35.07
2019-02-05T14:32:10.787Z,40.50
2019-02-05T14:34:40.458Z,37.30
2019-02-05T14:37:10.472Z,35.33
2019-02-05T14:39:40.578Z,36.07
2019-02-05T14:42:10.475Z,33.50
2019-02-05T14:44:40.491Z,41.23
2019-02-05T14:47:10.608Z,40.47
2019-02-05T14:49:40.555Z,39.03
2019-02-05T14:52:11.214Z,41.03
2019-02-05T14:54:40.973Z,40.73
2019-02-05T14:57:10.890Z,38.87
2019-02-05T14:59:40.743Z,39.35
2019-02-05T15:02:10.858Z,44.50
2019-02-05T15:04:40.883Z,45.25
2019-02-05T15:07:10.896Z,41.10
2019-02-05T15:09:41.319Z,38.78
2019-02-05T15:12:11.408Z,38.73
2019-02-05T15:14:48.040Z,44.33
2019-02-05T15:17:19.606Z,40.73
2019-02-05T15:19:49.157Z,39.73
2019-02-05T15:22:18.797Z,38.65
2019-02-05T15:24:48.375Z,48.02
2019-02-05T15:27:18.029Z,48.23
2019-02-05T15:29:47.513Z,44.53
2019-02-05T15:32:36.113Z,43.63
2019-02-05T15:35:06.678Z,45.97
2019-02-05T15:37:36.225Z,46.23
2019-02-05T15:40:07.738Z,43.97
2019-02-05T15:42:37.311Z,42.63
2019-02-05T15:45:07.885Z,44.63
2019-02-05T15:47:37.719Z,47.20
2019-02-05T15:50:07.458Z,52.70
2019-02-05T15:52:37.018Z,52.40
2019-02-05T15:55:06.988Z,54.00
2019-02-05T15:57:36.567Z,51.70
2019-02-05T16:00:08.037Z,48.47
2019-02-05T16:02:38.432Z,50.17
2019-02-05T16:05:08.885Z,42.03
2019-02-05T16:07:38.518Z,50.30
2019-02-05T16:10:10.092Z,46.07
2019-02-05T16:12:39.655Z,41.57
2019-02-05T16:15:09.894Z,48.20
2019-02-05T16:17:39.763Z,49.33
2019-02-05T16:20:10.571Z,49.00
2019-02-05T16:22:40.402Z,48.00
2019-02-05T16:25:11.693Z,52.60
2019-02-05T16:27:41.300Z,47.63
2019-02-05T16:30:14.558Z,52.07
2019-02-05T16:32:44.502Z,48.50
2019-02-05T16:35:14.589Z,49.80
2019-02-05T16:37:44.387Z,52.70
2019-02-05T16:40:16.960Z,54.87
2019-02-05T16:42:46.561Z,53.37
2019-02-05T16:45:18.846Z,55.08
2019-02-05T16:47:48.413Z,54.30
2019-02-05T16:50:23.209Z,52.67
2019-02-05T16:52:53.326Z,57.63
2019-02-05T16:55:22.917Z,55.23
2019-02-05T16:57:52.992Z,54.00
2019-02-05T17:00:27.763Z,56.27
2019-02-05T17:02:57.660Z,58.02
2019-02-05T17:05:28.996Z,56.07
2019-02-05T17:07:59.371Z,60.43
2019-02-05T17:10:29.615Z,49.67
2019-02-05T17:12:59.212Z,55.80
2019-02-05T17:15:28.812Z,54.38
2019-02-05T17:17:59.072Z,54.70
2019-02-05T17:20:29.594Z,59.00
2019-02-05T17:23:00.697Z,57.67
2019-02-05T17:25:30.774Z,64.70
2019-02-05T17:28:00.581Z,53.83
2019-02-05T17:30:32.348Z,57.17
2019-02-05T17:33:01.981Z,57.57
2019-02-05T17:35:31.618Z,60.03
2019-02-05T17:38:01.594Z,54.70
2019-02-05T17:40:31.237Z,54.27
2019-02-05T17:43:00.786Z,61.50
2019-02-05T17:45:32.239Z,59.63
2019-02-05T17:48:03.788Z,52.23
2019-02-05T17:50:33.687Z,46.27
2019-02-05T17:53:04.760Z,72.80
2019-02-05T17:55:34.845Z,57.60
2019-02-05T17:58:04.443Z,56.03
2019-02-05T18:01:05.009Z,54.43
2019-02-05T18:03:34.906Z,60.23
2019-02-05T18:06:05.315Z,54.07
2019-02-05T18:08:35.180Z,51.87
2019-02-05T18:11:06.040Z,57.60
2019-02-05T18:13:35.597Z,52.00
2019-02-05T18:16:10.251Z,48.23
2019-02-05T18:18:39.904Z,49.70
2019-02-05T18:21:09.492Z,53.90
2019-02-05T18:23:39.083Z,48.77
2019-02-05T18:26:08.682Z,47.57
2019-02-05T18:28:38.745Z,45.00
2019-02-05T18:31:08.690Z,45.40
2019-02-05T18:33:39.655Z,48.70
2019-02-05T18:36:09.972Z,51.30
2019-02-05T18:38:39.948Z,53.20
2019-02-05T18:41:09.474Z,62.63
2019-02-05T18:43:38.993Z,53.47
2019-02-05T18:46:08.559Z,44.70
2019-02-05T18:48:38.126Z,47.93
2019-02-05T18:51:07.929Z,42.70
2019-02-05T18:53:37.609Z,46.23
2019-02-05T18:56:07.359Z,45.70
2019-02-05T18:58:37.289Z,43.13
2019-02-05T19:01:07.483Z,37.90
2019-02-05T19:03:36.977Z,35.80
2019-02-05T19:06:07.580Z,37.13
2019-02-05T19:08:37.101Z,32.17
2019-02-05T19:11:07.041Z,30.90
2019-02-05T19:13:36.724Z,35.20
2019-02-05T19:16:06.421Z,34.63
2019-02-05T19:18:36.910Z,37.03
2019-02-05T19:21:06.521Z,40.97
2019-02-05T19:23:36.160Z,39.10
2019-02-05T19:26:09.850Z,37.50
2019-02-05T19:28:41.188Z,40.10
2019-02-05T19:31:41.484Z,36.17
2019-02-05T19:34:11.342Z,41.37
2019-02-05T19:36:42.501Z,38.50
2019-02-05T19:39:12.176Z,41.17
2019-02-05T19:41:41.663Z,45.27
2019-02-05T19:44:11.226Z,42.33
2019-02-05T19:46:47.355Z,41.90
2019-02-05T19:49:36.423Z,41.87
2019-02-05T19:52:06.652Z,47.17
2019-02-05T19:54:36.285Z,39.47
2019-02-05T19:57:05.841Z,42.07
2019-02-05T19:59:36.641Z,45.93
2019-02-05T20:02:06.732Z,44.75
2019-02-05T20:04:36.339Z,45.83
2019-02-05T20:07:05.984Z,49.07
2019-02-05T20:09:36.383Z,47.53
2019-02-05T20:12:06.252Z,49.87
2019-02-05T20:14:36.159Z,54.07
2019-02-05T20:17:06.373Z,59.43
2019-02-05T20:19:36.182Z,51.37
2019-02-05T20:22:06.036Z,50.27
2019-02-05T20:24:35.843Z,60.20
2019-02-05T20:27:05.693Z,50.37
2019-02-05T20:29:35.478Z,52.17
2019-02-05T20:32:05.372Z,57.17
2019-02-05T20:34:35.819Z,59.70
2019-02-05T20:37:05.477Z,59.73
2019-02-05T20:39:35.282Z,52.93
2019-02-05T20:42:05.031Z,55.93
2019-02-05T20:44:34.910Z,55.88
2019-02-05T20:47:05.863Z,59.67
2019-02-05T20:49:35.563Z,47.97
2019-02-05T20:52:05.141Z,65.80
2019-02-05T20:54:35.234Z,56.00
2019-02-05T20:57:04.874Z,50.93
2019-02-05T20:59:34.438Z,57.53
2019-02-05T21:02:04.111Z,59.60
2019-02-05T21:04:35.553Z,62.40
2019-02-05T21:07:05.670Z,57.87
2019-02-05T21:09:35.545Z,58.60
2019-02-05T21:12:05.230Z,56.20
2019-02-05T21:14:34.764Z,67.03
2019-02-05T21:17:04.513Z,57.33
2019-02-05T21:19:34.617Z,59.27
2019-02-05T21:22:04.264Z,59.73
2019-02-05T21:24:33.840Z,61.10
2019-02-05T21:27:03.391Z,64.47
2019-02-05T21:29:33.165Z,60.57
2019-02-05T21:32:03.453Z,68.57
2019-02-05T21:34:33.174Z,64.53
2019-02-05T21:37:02.683Z,63.13
2019-02-05T21:39:32.181Z,62.00
2019-02-05T21:42:02.256Z,70.37
2019-02-05T21:44:32.028Z,65.03
2019-02-05T21:47:01.860Z,70.57
2019-02-05T21:49:32.783Z,65.72
2019-02-05T21:52:02.311Z,60.77
2019-02-05T21:54:32.113Z,67.00
2019-02-05T21:57:01.770Z,66.05
2019-02-05T21:59:31.271Z,59.53
2019-02-05T22:02:00.882Z,65.37
2019-02-05T22:04:30.441Z,61.98
2019-02-05T22:07:00.490Z,71.33
2019-02-05T22:09:30.198Z,67.22
2019-02-05T22:11:59.764Z,68.53
2019-02-05T22:14:29.739Z,59.50
2019-02-05T22:16:59.262Z,63.02
2019-02-05T22:19:28.779Z,65.05
2019-02-05T22:21:58.408Z,66.47
2019-02-05T22:24:27.946Z,60.65
2019-02-05T22:26:57.455Z,60.63
2019-02-05T22:29:26.986Z,54.63
2019-02-05T22:31:56.713Z,58.93
2019-02-05T22:34:38.545Z,56.25
2019-02-05T22:36:58.103Z,56.60
2019-02-05T22:39:27.997Z,65.97
2019-02-05T22:41:57.518Z,63.50
2019-02-05T22:44:27.012Z,60.48
2019-02-05T22:46:56.865Z,57.97
2019-02-05T22:49:26.378Z,60.45
2019-02-05T22:51:56.354Z,59.00
2019-02-05T22:54:25.869Z,59.40
2019-02-05T22:56:55.409Z,55.90
2019-02-05T22:59:25.216Z,52.60
2019-02-05T23:01:56.955Z,52.78
2019-02-05T23:04:53.733Z,55.45
2019-02-05T23:07:25.043Z,59.90
2019-02-05T23:10:38.217Z,50.83
2019-02-05T23:13:10.598Z,49.73
2019-02-05T23:15:42.966Z,61.40
2019-02-05T23:18:13.048Z,58.03
2019-02-05T23:20:42.553Z,60.50
2019-02-05T23:23:12.260Z,64.30
2019-02-05T23:25:41.762Z,56.13
2019-02-05T23:28:11.361Z,53.23
2019-02-05T23:30:41.104Z,56.20
2019-02-05T23:33:11.337Z,57.43
2019-02-05T23:35:41.497Z,58.53
2019-02-05T23:38:11.034Z,66.77
2019-02-05T23:40:40.528Z,69.17
2019-02-05T23:43:10.198Z,63.00
2019-02-05T23:45:39.799Z,64.82
2019-02-05T23:48:09.769Z,67.80
2019-02-05T23:50:39.617Z,63.70
2019-02-05T23:53:09.403Z,63.80
2019-02-05T23:55:38.898Z,68.40
2019-02-05T23:58:08.767Z,56.53
